createdAt,value
2018-07-27T00:00:32.622Z,16.70
2018-07-27T00:03:01.776Z,16.80
2018-07-27T00:05:30.984Z,16.80
2018-07-27T00:08:00.252Z,16.90
2018-07-27T00:10:29.726Z,17.00
2018-07-27T00:12:58.909Z,16.90
2018-07-27T00:15:28.006Z,16.80
2018-07-27T00:17:57.071Z,16.90
2018-07-27T00:20:26.383Z,16.90
2018-07-27T00:22:55.557Z,16.90
2018-07-27T00:25:25.137Z,17.00
2018-07-27T00:27:54.447Z,17.00
2018-07-27T00:30:23.589Z,16.90
2018-07-27T00:32:52.777Z,17.10
2018-07-27T00:35:21.985Z,17.10
2018-07-27T00:37:51.222Z,17.10
2018-07-27T00:40:20.698Z,17.10
2018-07-27T00:42:49.939Z,17.10
2018-07-27T00:45:19.123Z,17.20
2018-07-27T00:47:48.528Z,17.20
2018-07-27T00:50:17.725Z,17.30
2018-07-27T00:52:46.863Z,17.30
2018-07-27T00:55:16.158Z,17.20
2018-07-27T00:57:45.297Z,17.30
2018-07-27T01:00:14.521Z,17.30
2018-07-27T01:02:44.471Z,17.30
2018-07-27T01:05:13.642Z,17.30
2018-07-27T01:07:43.011Z,17.30
2018-07-27T01:10:12.222Z,17.30
2018-07-27T01:12:41.551Z,17.30
2018-07-27T01:15:10.563Z,17.30
2018-07-27T01:17:40.052Z,17.30
2018-07-27T01:20:09.311Z,17.30
2018-07-27T01:22:38.872Z,17.30
2018-07-27T01:25:08.156Z,17.40
2018-07-27T01:27:37.344Z,17.20
2018-07-27T01:30:07.238Z,17.20
2018-07-27T01:32:36.469Z,17.20
2018-07-27T01:35:05.459Z,17.10
2018-07-27T01:37:34.529Z,17.20
2018-07-27T01:40:03.681Z,17.20
2018-07-27T01:42:33.212Z,17.30
2018-07-27T01:45:02.577Z,17.40
2018-07-27T01:47:31.840Z,17.40
2018-07-27T01:52:29.588Z,17.30
2018-07-27T01:54:58.772Z,17.40
2018-07-27T01:57:27.987Z,17.30
2018-07-27T01:59:57.220Z,17.20
2018-07-27T02:02:26.619Z,17.20
2018-07-27T02:07:25.439Z,17.30
2018-07-27T02:09:54.876Z,17.30
2018-07-27T02:12:24.024Z,17.30
2018-07-27T02:14:53.286Z,17.20
2018-07-27T02:17:22.611Z,17.20
2018-07-27T02:19:51.873Z,17.30
2018-07-27T02:22:21.124Z,17.30
2018-07-27T02:24:50.595Z,17.40
2018-07-27T02:27:19.780Z,17.40
2018-07-27T02:29:50.044Z,17.40
2018-07-27T02:32:19.241Z,17.30
2018-07-27T02:34:48.556Z,17.30
2018-07-27T02:37:18.099Z,17.40
2018-07-27T02:39:47.240Z,17.30
2018-07-27T02:42:16.453Z,17.30
2018-07-27T02:44:45.753Z,17.40
2018-07-27T02:47:15.148Z,17.40
2018-07-27T02:49:44.609Z,17.50
2018-07-27T02:52:13.800Z,17.50
2018-07-27T02:54:43.100Z,17.50
2018-07-27T02:57:12.392Z,17.50
2018-07-27T02:59:41.548Z,17.50
2018-07-27T03:02:10.827Z,17.40
2018-07-27T03:04:40.339Z,17.40
2018-07-27T03:07:09.912Z,17.50
2018-07-27T03:09:39.136Z,17.50
2018-07-27T03:12:08.244Z,17.50
2018-07-27T03:14:37.494Z,17.50
2018-07-27T03:17:06.998Z,17.50
2018-07-27T03:19:36.164Z,17.60
2018-07-27T03:22:05.361Z,17.50
2018-07-27T03:24:34.853Z,17.50
2018-07-27T03:27:04.048Z,17.60
2018-07-27T03:29:33.208Z,17.60
2018-07-27T03:32:02.283Z,17.50
2018-07-27T03:34:31.675Z,17.60
2018-07-27T03:37:00.819Z,17.60
2018-07-27T03:39:30.144Z,17.60
2018-07-27T03:41:59.238Z,17.70
2018-07-27T03:44:28.559Z,17.60
2018-07-27T03:46:57.756Z,17.60
2018-07-27T03:49:27.063Z,17.70
2018-07-27T03:51:56.356Z,17.60
2018-07-27T03:54:25.835Z,17.60
2018-07-27T03:56:55.180Z,17.50
2018-07-27T03:59:24.577Z,17.50
2018-07-27T04:01:53.776Z,17.50
2018-07-27T04:04:23.068Z,17.50
2018-07-27T04:06:52.240Z,17.50
2018-07-27T04:09:21.780Z,17.50
2018-07-27T04:11:50.957Z,17.60
2018-07-27T04:14:20.105Z,17.60
2018-07-27T04:16:49.601Z,17.60
2018-07-27T04:19:18.821Z,17.60
2018-07-27T04:21:48.020Z,17.60
2018-07-27T04:24:17.164Z,17.60
2018-07-27T04:26:46.549Z,17.60
2018-07-27T04:29:16.228Z,17.70
2018-07-27T04:31:45.569Z,17.70
2018-07-27T04:34:14.929Z,17.60
2018-07-27T04:36:44.471Z,17.70
2018-07-27T04:39:13.735Z,17.80
2018-07-27T04:41:42.932Z,17.80
2018-07-27T04:44:12.548Z,17.90
2018-07-27T04:46:41.888Z,17.90
2018-07-27T04:49:11.328Z,17.80
2018-07-27T04:51:40.558Z,17.80
2018-07-27T04:54:09.771Z,17.70
2018-07-27T04:56:39.192Z,17.90
2018-07-27T04:59:08.375Z,17.90
2018-07-27T05:01:37.713Z,18.00
2018-07-27T05:06:35.670Z,18.00
2018-07-27T05:09:11.705Z,17.90
2018-07-27T05:11:41.418Z,18.00
2018-07-27T05:14:10.607Z,17.90
2018-07-27T05:16:39.866Z,18.10
2018-07-27T05:19:08.970Z,18.00
2018-07-27T05:21:38.476Z,18.00
2018-07-27T05:24:07.599Z,18.00
2018-07-27T05:26:36.792Z,18.00
2018-07-27T05:29:06.126Z,18.20
2018-07-27T05:31:35.376Z,18.30
2018-07-27T05:34:04.806Z,18.30
2018-07-27T05:36:33.855Z,18.30
2018-07-27T05:39:03.485Z,18.40
2018-07-27T05:41:32.660Z,18.40
2018-07-27T05:44:01.904Z,18.50
2018-07-27T05:46:31.080Z,18.40
2018-07-27T05:49:00.005Z,18.40
2018-07-27T05:51:29.076Z,18.20
2018-07-27T05:53:58.584Z,18.30
2018-07-27T05:56:28.220Z,18.30
2018-07-27T05:58:57.620Z,18.30
2018-07-27T06:01:26.712Z,18.30
2018-07-27T06:03:56.101Z,18.30
2018-07-27T06:06:25.643Z,18.40
2018-07-27T06:08:55.364Z,18.60
2018-07-27T06:11:24.481Z,18.70
2018-07-27T06:13:53.700Z,18.70
2018-07-27T06:16:23.262Z,18.90
2018-07-27T06:18:52.560Z,18.80
2018-07-27T06:21:21.842Z,18.90
2018-07-27T06:23:51.135Z,18.90
2018-07-27T06:26:20.406Z,19.10
2018-07-27T06:28:49.561Z,19.40
2018-07-27T06:31:18.996Z,19.70
2018-07-27T06:33:48.159Z,19.60
2018-07-27T06:36:17.404Z,19.30
2018-07-27T06:38:46.808Z,19.40
2018-07-27T06:41:15.856Z,19.50
2018-07-27T06:43:45.322Z,19.30
2018-07-27T06:48:44.345Z,19.20
2018-07-27T06:51:13.603Z,19.20
2018-07-27T06:53:42.803Z,19.30
2018-07-27T06:56:12.001Z,19.40
2018-07-27T06:58:41.159Z,19.50
2018-07-27T07:01:10.240Z,19.60
2018-07-27T07:03:39.617Z,19.80
2018-07-27T07:06:08.656Z,20.00
2018-07-27T07:08:37.943Z,20.10
2018-07-27T07:11:07.080Z,20.00
2018-07-27T07:13:36.286Z,19.90
2018-07-27T07:16:05.784Z,20.10
2018-07-27T07:18:35.006Z,20.00
2018-07-27T07:21:04.178Z,20.70
2018-07-27T07:23:33.369Z,20.90
2018-07-27T07:26:03.049Z,20.60
2018-07-27T07:28:32.051Z,20.80
2018-07-27T07:31:01.704Z,21.20
2018-07-27T07:33:30.944Z,21.40
2018-07-27T07:36:00.841Z,21.20
2018-07-27T07:38:30.139Z,21.30
2018-07-27T07:40:59.244Z,22.00
2018-07-27T07:43:28.396Z,22.10
2018-07-27T07:45:57.901Z,22.20
2018-07-27T07:48:27.661Z,22.20
2018-07-27T07:50:56.857Z,22.10
2018-07-27T07:53:26.291Z,22.40
2018-07-27T07:55:55.799Z,22.30
2018-07-27T07:58:25.039Z,22.60
2018-07-27T08:00:55.174Z,22.40
2018-07-27T08:03:24.455Z,22.60
2018-07-27T08:05:54.617Z,22.70
2018-07-27T08:08:23.941Z,22.90
2018-07-27T08:10:53.109Z,23.20
2018-07-27T08:13:22.276Z,23.30
2018-07-27T08:15:51.451Z,23.40
2018-07-27T08:18:20.961Z,23.40
2018-07-27T08:20:50.454Z,23.80
2018-07-27T08:23:19.694Z,23.10
2018-07-27T08:26:41.933Z,23.40
2018-07-27T08:29:12.047Z,23.40
2018-07-27T08:31:42.893Z,23.40
2018-07-27T08:34:13.406Z,23.60
2018-07-27T08:36:44.048Z,24.00
2018-07-27T08:39:14.859Z,24.00
2018-07-27T08:41:43.972Z,24.20
2018-07-27T08:44:14.550Z,24.10
2018-07-27T08:46:43.287Z,23.90
2018-07-27T08:49:12.300Z,24.10
2018-07-27T08:51:41.878Z,23.90
2018-07-27T08:54:10.994Z,24.30
2018-07-27T08:56:40.292Z,24.10
2018-07-27T08:59:09.676Z,23.70
2018-07-27T09:01:38.915Z,23.50
2018-07-27T09:04:08.181Z,23.50
2018-07-27T09:06:37.511Z,23.80
2018-07-27T09:09:09.814Z,24.40
2018-07-27T09:11:39.032Z,24.90
2018-07-27T09:14:08.573Z,24.80
2018-07-27T09:16:38.130Z,25.10
2018-07-27T09:19:07.868Z,25.30
2018-07-27T09:21:37.414Z,25.50
2018-07-27T09:24:06.547Z,25.20
2018-07-27T09:26:35.679Z,25.10
2018-07-27T09:29:05.501Z,25.20
2018-07-27T09:31:34.821Z,25.00
2018-07-27T09:34:04.371Z,25.30
2018-07-27T09:36:33.473Z,25.90
2018-07-27T09:39:02.891Z,25.70
2018-07-27T09:41:32.178Z,24.90
2018-07-27T09:44:01.271Z,24.90
2018-07-27T09:46:30.543Z,24.50
2018-07-27T09:48:59.954Z,24.30
2018-07-27T09:51:29.005Z,24.60
2018-07-27T09:53:58.248Z,24.50
2018-07-27T09:56:27.682Z,25.20
2018-07-27T09:58:57.083Z,25.40
2018-07-27T10:01:27.888Z,24.60
2018-07-27T10:03:57.196Z,24.60
2018-07-27T10:06:26.554Z,25.70
2018-07-27T10:08:56.185Z,26.20
2018-07-27T10:11:25.219Z,25.70
2018-07-27T10:13:54.651Z,25.70
2018-07-27T10:16:24.000Z,25.40
2018-07-27T10:18:53.275Z,24.90
2018-07-27T10:21:22.905Z,25.00
2018-07-27T10:23:52.317Z,25.00
2018-07-27T10:26:21.679Z,25.70
2018-07-27T10:28:50.883Z,26.40
2018-07-27T10:31:20.486Z,26.40
2018-07-27T10:33:49.967Z,25.90
2018-07-27T10:36:19.166Z,25.40
2018-07-27T10:38:48.515Z,25.90
2018-07-27T10:41:17.901Z,26.00
2018-07-27T10:43:47.158Z,26.00
2018-07-27T10:46:16.421Z,26.60
2018-07-27T10:48:45.945Z,26.60
2018-07-27T10:51:15.791Z,27.20
2018-07-27T10:53:45.160Z,27.60
2018-07-27T10:56:15.333Z,27.40
2018-07-27T10:58:44.713Z,26.90
2018-07-27T11:01:14.121Z,27.10
2018-07-27T11:03:43.305Z,27.40
2018-07-27T11:06:12.835Z,27.20
2018-07-27T11:08:42.276Z,27.50
2018-07-27T11:11:11.476Z,27.20
2018-07-27T11:13:40.802Z,26.20
2018-07-27T11:16:09.997Z,25.90
2018-07-27T11:18:39.351Z,26.30
2018-07-27T11:21:08.405Z,27.00
2018-07-27T11:23:37.726Z,26.70
2018-07-27T11:26:08.357Z,26.20
2018-07-27T11:28:39.248Z,26.00
2018-07-27T11:31:08.546Z,25.40
2018-07-27T11:33:37.636Z,25.20
2018-07-27T11:36:06.868Z,24.90
2018-07-27T11:41:05.112Z,24.70
2018-07-27T11:43:34.288Z,25.20
2018-07-27T11:46:03.916Z,25.10
2018-07-27T11:48:33.009Z,25.30
2018-07-27T11:51:03.276Z,25.30
2018-07-27T11:56:01.659Z,25.00
2018-07-27T11:58:31.882Z,24.60
2018-07-27T12:01:01.487Z,24.70
2018-07-27T12:03:31.016Z,24.50
2018-07-27T12:06:01.399Z,24.60
2018-07-27T12:08:31.544Z,24.50
2018-07-27T12:11:00.435Z,24.30
2018-07-27T12:13:29.688Z,24.50
2018-07-27T12:15:58.805Z,24.30
2018-07-27T12:18:28.285Z,24.20
2018-07-27T12:20:57.920Z,24.10
2018-07-27T12:23:26.883Z,24.20
2018-07-27T12:25:56.256Z,23.90
2018-07-27T12:28:25.653Z,23.90
2018-07-27T12:30:55.039Z,23.90
2018-07-27T12:35:53.097Z,24.10
2018-07-27T12:38:22.165Z,24.00
2018-07-27T12:40:51.407Z,24.10
2018-07-27T12:43:20.668Z,24.20
2018-07-27T12:45:50.478Z,24.10
2018-07-27T12:48:19.543Z,24.50
2018-07-27T12:50:48.685Z,25.00
2018-07-27T12:53:17.980Z,25.30
2018-07-27T12:55:47.574Z,25.80
2018-07-27T12:58:16.908Z,26.40
2018-07-27T13:00:46.198Z,26.60
2018-07-27T13:03:15.344Z,26.40
2018-07-27T13:05:44.788Z,26.80
2018-07-27T13:08:14.152Z,26.60
2018-07-27T13:10:43.333Z,26.90
2018-07-27T13:13:13.294Z,26.60
2018-07-27T13:15:42.449Z,26.80
2018-07-27T13:18:11.681Z,26.50
2018-07-27T13:20:49.315Z,26.70
2018-07-27T13:23:18.948Z,26.90
2018-07-27T13:26:28.899Z,26.90
2018-07-27T13:28:43.988Z,26.60
2018-07-27T13:31:13.520Z,26.80
2018-07-27T13:33:59.300Z,26.50
2018-07-27T13:36:28.710Z,26.10
2018-07-27T13:38:57.839Z,26.10
2018-07-27T13:41:27.272Z,26.40
2018-07-27T13:43:56.519Z,27.00
2018-07-27T13:46:26.224Z,27.20
2018-07-27T13:48:55.425Z,26.80
2018-07-27T13:51:24.804Z,27.30
2018-07-27T13:53:54.185Z,27.30
2018-07-27T13:56:23.452Z,26.50
2018-07-27T13:58:52.822Z,26.50
2018-07-27T14:01:22.405Z,26.50
2018-07-27T14:03:51.759Z,27.40
2018-07-27T14:06:20.875Z,28.00
2018-07-27T14:08:50.814Z,27.60
2018-07-27T14:11:20.366Z,27.80
2018-07-27T14:13:49.909Z,27.80
2018-07-27T14:16:19.039Z,27.70
2018-07-27T14:18:49.093Z,28.10
2018-07-27T14:21:18.276Z,28.20
2018-07-27T14:23:47.422Z,28.20
2018-07-27T14:26:16.705Z,28.00
2018-07-27T14:28:46.215Z,27.50
2018-07-27T14:31:15.455Z,27.80
2018-07-27T14:33:44.830Z,27.90
2018-07-27T14:36:14.312Z,28.00
2018-07-27T14:38:44.002Z,28.00
2018-07-27T14:41:13.191Z,27.90
2018-07-27T14:43:42.726Z,27.00
2018-07-27T14:46:12.031Z,26.60
2018-07-27T14:48:41.480Z,26.30
2018-07-27T14:51:10.588Z,26.30
2018-07-27T14:53:45.600Z,26.30
2018-07-27T14:56:15.386Z,26.30
2018-07-27T14:58:44.630Z,26.40
2018-07-27T15:01:14.127Z,26.60
2018-07-27T15:03:43.408Z,26.80
2018-07-27T15:06:12.526Z,26.60
2018-07-27T15:08:41.539Z,26.70
2018-07-27T15:11:10.788Z,27.10
2018-07-27T15:13:39.954Z,27.30
2018-07-27T15:16:09.450Z,27.10
2018-07-27T15:18:38.648Z,27.40
2018-07-27T15:21:08.065Z,27.20
2018-07-27T15:23:37.046Z,26.90
2018-07-27T15:26:06.271Z,26.90
2018-07-27T15:28:36.017Z,26.80
2018-07-27T15:31:05.261Z,26.50
2018-07-27T15:33:34.578Z,26.40
2018-07-27T15:36:05.191Z,26.10
2018-07-27T15:38:34.425Z,26.20
2018-07-27T15:41:03.618Z,26.20
2018-07-27T15:43:32.992Z,26.00
2018-07-27T15:46:02.359Z,25.80
2018-07-27T15:48:31.572Z,25.90
2018-07-27T15:51:00.883Z,25.70
2018-07-27T15:53:30.159Z,25.60
2018-07-27T15:55:59.388Z,25.60
2018-07-27T15:58:28.874Z,25.40
2018-07-27T16:00:58.103Z,25.30
2018-07-27T16:03:27.172Z,25.20
2018-07-27T16:05:56.272Z,25.10
2018-07-27T16:08:25.527Z,25.00
2018-07-27T16:13:23.495Z,24.70
2018-07-27T16:15:52.564Z,24.60
2018-07-27T16:18:21.719Z,24.50
2018-07-27T16:20:50.960Z,24.50
2018-07-27T16:23:20.166Z,24.50
2018-07-27T16:25:49.364Z,24.50
2018-07-27T16:28:18.795Z,24.50
2018-07-27T16:30:48.076Z,24.40
2018-07-27T16:33:17.260Z,24.30
2018-07-27T16:35:46.431Z,24.20
2018-07-27T16:38:15.689Z,24.20
2018-07-27T16:40:44.842Z,24.10
2018-07-27T16:43:14.158Z,24.00
2018-07-27T16:45:43.242Z,24.00
2018-07-27T16:48:12.465Z,23.90
2018-07-27T16:50:41.603Z,24.00
2018-07-27T16:53:11.074Z,23.80
2018-07-27T16:55:40.327Z,23.80
2018-07-27T16:58:09.841Z,23.80
2018-07-27T17:00:39.123Z,23.70
2018-07-27T17:03:09.235Z,23.70
2018-07-27T17:05:39.263Z,23.60
2018-07-27T17:08:09.416Z,23.50
2018-07-27T17:10:38.817Z,23.40
2018-07-27T17:13:08.120Z,23.40
2018-07-27T17:15:37.416Z,23.40
2018-07-27T17:18:06.601Z,23.20
2018-07-27T17:20:35.896Z,23.10
2018-07-27T17:23:05.012Z,23.10
2018-07-27T17:25:34.228Z,22.90
2018-07-27T17:28:03.389Z,22.70
2018-07-27T17:30:32.588Z,22.60
2018-07-27T17:33:02.129Z,22.40
2018-07-27T17:35:31.262Z,22.10
2018-07-27T17:38:00.821Z,22.00
2018-07-27T17:40:30.251Z,21.80
2018-07-27T17:42:59.552Z,21.70
2018-07-27T17:45:28.855Z,21.40
2018-07-27T17:47:57.960Z,21.30
2018-07-27T17:50:28.261Z,21.30
2018-07-27T17:52:58.963Z,21.20
2018-07-27T17:55:28.201Z,21.20
2018-07-27T17:57:57.496Z,21.20
2018-07-27T18:00:27.207Z,21.20
2018-07-27T18:02:56.832Z,21.10
2018-07-27T18:05:26.856Z,21.00
2018-07-27T18:07:56.509Z,21.00
2018-07-27T18:10:25.671Z,20.90
2018-07-27T18:12:55.097Z,20.90
2018-07-27T18:15:24.235Z,20.80
2018-07-27T18:17:53.676Z,20.50
2018-07-27T18:20:22.633Z,20.30
2018-07-27T18:22:51.994Z,20.20
2018-07-27T18:25:21.173Z,20.10
2018-07-27T18:27:50.406Z,20.10
2018-07-27T18:30:19.688Z,20.10
2018-07-27T18:37:46.065Z,20.10
2018-07-27T18:40:17.356Z,20.00
2018-07-27T18:42:46.710Z,20.00
2018-07-27T18:45:16.945Z,19.90
2018-07-27T18:47:46.368Z,19.90
2018-07-27T18:50:15.615Z,19.90
2018-07-27T18:52:44.709Z,19.60
2018-07-27T18:55:14.249Z,19.40
2018-07-27T18:57:43.450Z,19.40
2018-07-27T19:00:12.746Z,19.50
2018-07-27T19:02:41.982Z,19.40
2018-07-27T19:05:11.143Z,19.40
2018-07-27T19:07:40.543Z,19.30
2018-07-27T19:10:09.984Z,19.40
2018-07-27T19:15:09.498Z,19.50
2018-07-27T19:17:39.197Z,19.30
2018-07-27T19:20:08.333Z,19.20
2018-07-27T19:22:37.805Z,19.00
2018-07-27T19:25:07.060Z,18.80
2018-07-27T19:27:36.452Z,18.80
2018-07-27T19:30:07.925Z,18.90
2018-07-27T19:32:37.040Z,18.90
2018-07-27T19:35:06.269Z,18.90
2018-07-27T19:37:35.560Z,19.00
2018-07-27T19:40:05.180Z,19.00
2018-07-27T19:42:34.292Z,18.80
2018-07-27T19:45:03.415Z,18.70
2018-07-27T19:47:33.365Z,18.60
2018-07-27T19:50:02.664Z,18.50
2018-07-27T19:52:32.353Z,18.60
2018-07-27T19:55:02.280Z,18.50
2018-07-27T19:57:31.513Z,18.50
2018-07-27T20:00:00.845Z,18.50
2018-07-27T20:02:29.941Z,18.50
2018-07-27T20:04:59.154Z,18.50
2018-07-27T20:07:28.226Z,18.40
2018-07-27T20:09:57.780Z,18.40
2018-07-27T20:12:26.821Z,18.30
2018-07-27T20:14:57.054Z,18.20
2018-07-27T20:17:26.381Z,18.10
2018-07-27T20:19:55.967Z,18.10
2018-07-27T20:22:25.373Z,18.20
2018-07-27T20:24:54.939Z,18.10
2018-07-27T20:27:24.267Z,18.10
2018-07-27T20:29:53.857Z,18.20
2018-07-27T20:32:24.498Z,18.20
2018-07-27T20:34:53.861Z,18.10
2018-07-27T20:37:23.369Z,18.00
2018-07-27T20:39:52.979Z,17.70
2018-07-27T20:42:22.303Z,17.70
2018-07-27T20:44:52.594Z,17.60
2018-07-27T20:47:21.830Z,17.60
2018-07-27T20:49:52.216Z,17.60
2018-07-27T20:52:21.362Z,17.70
2018-07-27T20:54:50.624Z,17.70
2018-07-27T20:57:19.724Z,17.70
2018-07-27T20:59:48.867Z,17.70
2018-07-27T21:02:17.963Z,17.70
2018-07-27T21:04:47.334Z,17.70
2018-07-27T21:07:16.795Z,17.70
2018-07-27T21:09:46.104Z,17.60
2018-07-27T21:12:15.410Z,17.70
2018-07-27T21:14:45.343Z,17.70
2018-07-27T21:17:14.808Z,17.60
2018-07-27T21:19:43.978Z,17.50
2018-07-27T21:22:13.158Z,17.50
2018-07-27T21:24:42.185Z,17.50
2018-07-27T21:27:11.378Z,17.40
2018-07-27T21:29:40.632Z,17.40
2018-07-27T21:32:09.784Z,17.30
2018-07-27T21:34:39.024Z,17.30
2018-07-27T21:37:08.132Z,17.40
2018-07-27T21:39:37.379Z,17.20
2018-07-27T21:42:06.570Z,17.10
2018-07-27T21:44:36.112Z,17.20
2018-07-27T21:47:05.117Z,17.20
2018-07-27T21:49:34.396Z,17.10
2018-07-27T21:52:03.735Z,17.10
2018-07-27T21:54:32.963Z,17.10
2018-07-27T21:57:02.227Z,17.20
2018-07-27T21:59:31.544Z,17.10
2018-07-27T22:02:00.891Z,16.90
2018-07-27T22:04:30.089Z,16.60
2018-07-27T22:06:59.264Z,16.70
2018-07-27T22:09:28.944Z,16.60
2018-07-27T22:11:58.297Z,16.60
2018-07-27T22:14:27.849Z,16.60
2018-07-27T22:16:57.552Z,16.70
2018-07-27T22:19:26.753Z,16.60
2018-07-27T22:21:56.111Z,16.70
2018-07-27T22:24:25.881Z,16.70
2018-07-27T22:26:54.940Z,16.80
2018-07-27T22:29:24.357Z,16.80
2018-07-27T22:31:53.771Z,16.80
2018-07-27T22:34:22.905Z,16.80
2018-07-27T22:36:52.427Z,16.70
2018-07-27T22:39:21.473Z,16.60
2018-07-27T22:41:50.708Z,16.50
2018-07-27T22:44:19.818Z,16.60
2018-07-27T22:46:48.595Z,16.50
2018-07-27T22:49:17.785Z,16.40
2018-07-27T22:51:47.058Z,16.40
2018-07-27T22:54:16.348Z,16.40
2018-07-27T22:56:45.517Z,16.50
2018-07-27T22:59:14.607Z,16.50
2018-07-27T23:01:43.784Z,16.50
2018-07-27T23:04:12.932Z,16.40
2018-07-27T23:06:42.236Z,16.40
2018-07-27T23:09:11.940Z,16.30
2018-07-27T23:14:09.951Z,16.10
2018-07-27T23:16:39.142Z,16.00
2018-07-27T23:19:08.212Z,16.00
2018-07-27T23:21:37.248Z,16.10
2018-07-27T23:24:06.479Z,16.10
2018-07-27T23:26:35.700Z,16.20
2018-07-27T23:29:04.991Z,16.10
2018-07-27T23:31:34.196Z,16.10
2018-07-27T23:34:03.492Z,16.00
2018-07-27T23:36:32.792Z,16.00
2018-07-27T23:39:02.024Z,16.00
2018-07-27T23:41:31.415Z,16.00
2018-07-27T23:44:00.544Z,16.00
2018-07-27T23:46:29.831Z,15.80
2018-07-27T23:48:59.136Z,15.80
2018-07-27T23:51:28.341Z,15.70
2018-07-27T23:53:57.519Z,15.70
2018-07-27T23:56:26.723Z,15.70
2018-07-27T23:58:55.957Z,15.70
